createdAt,value
2022-12-22T00:01:29.523Z,88.43
2022-12-22T00:04:14.967Z,88.59
2022-12-22T00:07:00.541Z,88.25
2022-12-22T00:09:45.451Z,88.01
2022-12-22T00:12:32.525Z,86.78
2022-12-22T00:15:17.894Z,88.19
2022-12-22T00:18:03.631Z,87.53
2022-12-22T00:20:48.917Z,88.03
2022-12-22T00:23:34.652Z,88.42
2022-12-22T00:26:19.725Z,88.72
2022-12-22T00:29:05.983Z,88.54
2022-12-22T00:31:51.190Z,87.96
2022-12-22T00:34:40.181Z,87.80
2022-12-22T00:37:30.806Z,87.80
2022-12-22T00:40:17.533Z,88.13
2022-12-22T00:43:02.914Z,87.95
2022-12-22T00:45:48.934Z,87.77
2022-12-22T00:48:45.561Z,87.96
2022-12-22T00:51:31.161Z,87.71
2022-12-22T00:54:16.501Z,87.37
2022-12-22T00:57:02.058Z,87.62
2022-12-22T00:59:47.501Z,87.34
2022-12-22T01:02:32.539Z,87.55
2022-12-22T01:05:18.088Z,87.47
2022-12-22T01:08:03.345Z,86.67
2022-12-22T01:10:48.847Z,86.52
2022-12-22T01:13:34.214Z,85.75
2022-12-22T01:16:19.844Z,86.43
2022-12-22T01:19:05.239Z,86.21
2022-12-22T01:21:50.605Z,86.19
2022-12-22T01:24:37.502Z,86.62
2022-12-22T01:27:23.185Z,86.64
2022-12-22T01:30:08.443Z,86.45
2022-12-22T01:32:53.742Z,86.81
2022-12-22T01:35:42.482Z,87.10
2022-12-22T01:38:27.870Z,86.44
2022-12-22T01:41:14.198Z,86.44
2022-12-22T01:43:59.346Z,85.65
2022-12-22T01:46:48.231Z,85.72
2022-12-22T01:49:42.000Z,86.06
2022-12-22T01:52:29.463Z,85.84
2022-12-22T01:55:16.905Z,85.75
2022-12-22T01:58:01.809Z,86.02
2022-12-22T02:00:47.245Z,86.09
2022-12-22T02:03:37.283Z,86.59
2022-12-22T02:06:38.539Z,86.92
2022-12-22T02:10:02.985Z,85.96
2022-12-22T02:12:54.026Z,86.02
2022-12-22T02:15:55.096Z,85.33
2022-12-22T02:18:59.205Z,85.69
2022-12-22T02:21:48.012Z,83.86
2022-12-22T02:24:52.491Z,83.56
2022-12-22T02:27:37.881Z,83.67
2022-12-22T02:30:25.734Z,83.58
2022-12-22T02:33:10.886Z,83.19
2022-12-22T02:36:18.138Z,83.97
2022-12-22T02:39:40.220Z,81.88
2022-12-22T02:42:38.452Z,82.42
2022-12-22T02:45:42.369Z,82.79
2022-12-22T02:48:40.437Z,82.50
2022-12-22T02:51:28.185Z,82.73
2022-12-22T02:54:15.502Z,81.54
2022-12-22T02:57:01.383Z,81.91
2022-12-22T02:59:46.241Z,82.38
2022-12-22T03:02:32.166Z,81.29
2022-12-22T03:05:17.025Z,80.98
2022-12-22T03:08:07.938Z,81.62
2022-12-22T03:10:53.700Z,81.21
2022-12-22T03:13:38.631Z,80.77
2022-12-22T03:16:23.646Z,81.05
2022-12-22T03:19:08.895Z,80.88
2022-12-22T03:21:53.628Z,81.01
2022-12-22T03:24:38.644Z,81.22
2022-12-22T03:27:05.054Z,81.21
2022-12-22T03:29:31.479Z,81.35
2022-12-22T03:31:57.991Z,81.52
2022-12-22T03:34:24.527Z,81.92
2022-12-22T03:36:51.009Z,81.96
2022-12-22T03:39:17.424Z,82.01
2022-12-22T03:42:02.695Z,82.21
2022-12-22T03:44:47.632Z,82.84
2022-12-22T03:47:14.248Z,81.91
2022-12-22T03:49:40.782Z,82.07
2022-12-22T03:52:07.209Z,82.26
2022-12-22T03:54:33.620Z,82.27
2022-12-22T03:57:00.037Z,82.55
2022-12-22T03:59:26.467Z,82.31
2022-12-22T04:01:54.233Z,81.67
2022-12-22T04:04:24.561Z,81.44
2022-12-22T04:06:51.472Z,82.37
2022-12-22T04:09:18.131Z,81.94
2022-12-22T04:12:03.356Z,81.91
2022-12-22T04:14:33.849Z,81.18
2022-12-22T04:17:02.584Z,81.86
2022-12-22T04:19:29.399Z,81.06
2022-12-22T04:21:55.874Z,81.22
2022-12-22T04:24:22.447Z,80.11
2022-12-22T04:26:49.814Z,80.32
2022-12-22T04:29:16.702Z,80.38
2022-12-22T04:31:43.570Z,79.56
2022-12-22T04:34:10.092Z,79.18
2022-12-22T04:36:36.599Z,79.20
2022-12-22T04:39:03.836Z,77.77
2022-12-22T04:41:30.310Z,78.08
2022-12-22T04:43:56.780Z,77.55
2022-12-22T04:46:23.333Z,78.28
2022-12-22T04:48:53.244Z,77.61
2022-12-22T04:51:24.231Z,77.20
2022-12-22T04:53:50.737Z,77.17
2022-12-22T04:56:17.118Z,77.72
2022-12-22T04:58:43.554Z,77.32
2022-12-22T05:01:16.123Z,76.67
2022-12-22T05:03:42.950Z,76.38
2022-12-22T05:06:10.085Z,76.42
2022-12-22T05:08:37.239Z,75.48
2022-12-22T05:11:03.901Z,76.05
2022-12-22T05:13:33.797Z,76.19
2022-12-22T05:16:12.626Z,75.75
2022-12-22T05:18:40.486Z,75.60
2022-12-22T05:21:15.789Z,74.59
2022-12-22T05:23:42.552Z,73.89
2022-12-22T05:26:09.689Z,73.89
2022-12-22T05:28:36.302Z,73.64
2022-12-22T05:31:08.273Z,73.80
2022-12-22T05:33:35.225Z,72.38
2022-12-22T05:36:01.938Z,72.80
2022-12-22T05:38:28.739Z,72.51
2022-12-22T05:41:03.214Z,72.70
2022-12-22T05:43:30.628Z,73.05
2022-12-22T05:45:58.593Z,73.18
2022-12-22T05:48:29.725Z,73.00
2022-12-22T05:50:58.696Z,72.71
2022-12-22T05:53:25.171Z,73.05
2022-12-22T05:55:52.760Z,73.27
2022-12-22T05:58:19.836Z,73.74
2022-12-22T06:00:46.394Z,73.02
2022-12-22T06:03:12.934Z,72.99
2022-12-22T06:05:39.645Z,71.91
2022-12-22T06:08:06.070Z,71.72
2022-12-22T06:10:32.711Z,71.79
2022-12-22T06:12:59.154Z,71.91
2022-12-22T06:15:25.607Z,71.21
2022-12-22T06:17:52.004Z,71.17
2022-12-22T06:20:18.471Z,70.06
2022-12-22T06:22:44.885Z,70.67
2022-12-22T06:25:17.815Z,71.71
2022-12-22T06:27:45.668Z,72.72
2022-12-22T06:30:12.404Z,73.10
2022-12-22T06:32:39.634Z,74.33
2022-12-22T06:35:08.079Z,73.16
2022-12-22T06:37:34.515Z,73.59
2022-12-22T06:40:01.108Z,73.50
2022-12-22T06:42:46.098Z,73.69
2022-12-22T06:45:13.189Z,73.76
2022-12-22T06:47:39.807Z,74.24
2022-12-22T06:50:06.976Z,74.71
2022-12-22T06:52:33.533Z,74.96
2022-12-22T06:54:59.967Z,74.62
2022-12-22T06:57:26.359Z,75.00
2022-12-22T06:59:57.470Z,76.04
2022-12-22T07:02:24.704Z,77.84
2022-12-22T07:04:51.300Z,77.88
2022-12-22T07:07:17.730Z,77.66
2022-12-22T07:09:44.215Z,78.56
2022-12-22T07:12:10.644Z,78.32
2022-12-22T07:14:37.047Z,77.61
2022-12-22T07:17:03.563Z,77.50
2022-12-22T07:19:30.092Z,77.62
2022-12-22T07:21:56.573Z,76.91
2022-12-22T07:24:25.799Z,76.72
2022-12-22T07:26:52.915Z,76.32
2022-12-22T07:29:19.458Z,76.16
2022-12-22T07:31:46.214Z,74.82
2022-12-22T07:34:13.044Z,75.43
2022-12-22T07:36:39.660Z,75.03
2022-12-22T07:39:06.497Z,74.35
2022-12-22T07:41:51.316Z,74.10
2022-12-22T07:44:17.927Z,72.66
2022-12-22T07:46:44.387Z,72.01
2022-12-22T07:49:29.989Z,71.78
2022-12-22T07:51:57.769Z,71.45
2022-12-22T07:54:24.794Z,71.83
2022-12-22T07:56:51.513Z,71.77
2022-12-22T07:59:18.150Z,73.05
2022-12-22T08:01:45.580Z,74.93
2022-12-22T08:04:13.644Z,75.97
2022-12-22T08:06:41.022Z,75.45
2022-12-22T08:09:08.780Z,74.49
2022-12-22T08:11:35.769Z,76.21
2022-12-22T08:14:02.523Z,78.78
2022-12-22T08:16:29.862Z,78.82
2022-12-22T08:18:57.308Z,78.86
2022-12-22T08:21:24.099Z,80.02
2022-12-22T08:23:50.686Z,80.08
2022-12-22T08:26:19.807Z,78.66
2022-12-22T08:28:56.579Z,77.42
2022-12-22T08:31:26.445Z,77.77
2022-12-22T08:33:54.073Z,76.68
2022-12-22T08:36:20.765Z,75.47
2022-12-22T08:38:47.320Z,75.70
2022-12-22T08:41:16.206Z,75.00
2022-12-22T08:43:42.656Z,74.86
2022-12-22T08:46:09.109Z,75.51
2022-12-22T08:48:35.561Z,75.25
2022-12-22T08:51:02.053Z,74.43
2022-12-22T08:56:14.909Z,74.25
2022-12-22T08:58:41.391Z,74.36
2022-12-22T09:01:07.897Z,75.04
2022-12-22T09:03:34.420Z,75.60
2022-12-22T09:06:04.422Z,75.76
2022-12-22T09:08:30.846Z,75.63
2022-12-22T09:11:02.331Z,74.74
2022-12-22T09:13:28.734Z,75.77
2022-12-22T09:15:55.132Z,76.90
2022-12-22T09:18:21.563Z,76.72
2022-12-22T09:20:49.218Z,78.59
2022-12-22T09:23:15.663Z,78.15
2022-12-22T09:25:42.070Z,78.87
2022-12-22T09:28:08.493Z,78.56
2022-12-22T09:30:34.921Z,78.82
2022-12-22T09:33:01.299Z,79.47
2022-12-22T09:35:27.700Z,78.45
2022-12-22T09:37:54.084Z,77.67
2022-12-22T09:40:22.123Z,77.44
2022-12-22T09:42:48.609Z,76.53
2022-12-22T09:45:20.084Z,76.65
2022-12-22T09:47:53.456Z,76.57
2022-12-22T09:50:25.529Z,76.11
2022-12-22T09:53:00.444Z,76.45
2022-12-22T09:55:44.853Z,76.98
2022-12-22T09:58:26.901Z,77.36
2022-12-22T10:01:08.002Z,77.67
2022-12-22T10:04:00.038Z,78.69
2022-12-22T10:07:02.967Z,81.09
2022-12-22T10:12:21.691Z,81.33
2022-12-22T10:14:50.081Z,79.13
2022-12-22T10:17:24.985Z,79.42
2022-12-22T10:19:54.566Z,78.03
2022-12-22T10:22:29.859Z,78.44
2022-12-22T10:24:57.196Z,78.00
2022-12-22T10:27:29.586Z,78.36
2022-12-22T10:30:29.913Z,78.65
2022-12-22T10:33:11.379Z,78.36
2022-12-22T10:35:58.379Z,77.92
2022-12-22T10:38:37.058Z,77.72
2022-12-22T10:41:13.919Z,78.19
2022-12-22T10:43:47.030Z,77.41
2022-12-22T10:46:13.803Z,78.26
2022-12-22T10:48:40.678Z,76.82
2022-12-22T10:51:09.826Z,76.48
2022-12-22T10:53:46.234Z,76.64
2022-12-22T10:56:19.912Z,77.02
2022-12-22T10:58:55.577Z,76.62
2022-12-22T11:01:28.613Z,75.43
2022-12-22T11:03:55.641Z,76.18
2022-12-22T11:06:22.175Z,75.41
2022-12-22T11:08:51.566Z,75.68
2022-12-22T11:11:35.576Z,74.30
2022-12-22T11:14:47.056Z,75.08
2022-12-22T11:17:20.662Z,75.71
2022-12-22T11:20:05.202Z,75.51
2022-12-22T11:22:41.398Z,73.64
2022-12-22T11:25:36.484Z,73.51
2022-12-22T11:28:30.935Z,73.13
2022-12-22T11:31:23.134Z,73.04
2022-12-22T11:34:19.080Z,71.88
2022-12-22T11:37:02.367Z,71.36
2022-12-22T11:39:59.060Z,71.64
2022-12-22T11:42:57.417Z,70.58
2022-12-22T11:45:39.069Z,71.87
2022-12-22T11:48:15.130Z,71.52
2022-12-22T11:50:59.671Z,71.97
2022-12-22T11:54:08.702Z,71.42
2022-12-22T11:56:47.202Z,71.91
2022-12-22T11:59:57.551Z,71.52
2022-12-22T12:02:36.320Z,72.32
2022-12-22T12:05:21.349Z,75.73
2022-12-22T12:08:09.883Z,74.82
2022-12-22T12:10:51.673Z,75.10
2022-12-22T12:13:37.367Z,74.81
2022-12-22T12:16:27.265Z,75.17
2022-12-22T12:19:28.590Z,74.99
2022-12-22T12:21:59.000Z,75.90
2022-12-22T12:24:52.592Z,75.48
2022-12-22T12:27:37.097Z,76.27
2022-12-22T12:30:37.492Z,76.86
2022-12-22T12:33:01.087Z,78.52
2022-12-22T12:35:46.372Z,78.10
2022-12-22T12:38:39.727Z,78.16
2022-12-22T12:41:20.011Z,77.17
2022-12-22T12:43:50.139Z,76.23
2022-12-22T12:46:50.366Z,74.57
2022-12-22T12:49:34.927Z,74.51
2022-12-22T12:52:05.351Z,73.48
2022-12-22T12:54:31.681Z,72.37
2022-12-22T12:57:07.643Z,72.41
2022-12-22T12:59:40.249Z,70.78
2022-12-22T13:02:28.830Z,71.34
2022-12-22T13:05:30.193Z,73.32
2022-12-22T13:08:08.867Z,73.55
2022-12-22T13:11:08.824Z,73.19
2022-12-22T13:13:35.232Z,73.35
2022-12-22T13:16:04.120Z,72.57
2022-12-22T13:18:33.380Z,72.81
2022-12-22T13:24:25.112Z,72.29
2022-12-22T13:26:57.107Z,72.46
2022-12-22T13:29:45.542Z,72.76
2022-12-22T13:32:25.839Z,72.27
2022-12-22T13:35:34.661Z,71.81
2022-12-22T13:38:02.824Z,73.07
2022-12-22T13:40:32.477Z,73.13
2022-12-22T13:43:12.774Z,72.56
2022-12-22T13:45:43.813Z,72.66
2022-12-22T13:48:22.021Z,71.97
2022-12-22T13:50:54.053Z,70.68
2022-12-22T13:56:23.941Z,70.94
2022-12-22T13:59:02.048Z,69.95
2022-12-22T14:01:29.083Z,69.68
2022-12-22T14:04:04.274Z,71.29
2022-12-22T14:06:36.823Z,70.92
2022-12-22T14:09:29.721Z,70.38
2022-12-22T14:12:01.918Z,70.39
2022-12-22T14:14:31.878Z,70.42
2022-12-22T14:17:00.644Z,70.79
2022-12-22T14:19:36.457Z,69.19
2022-12-22T14:22:09.474Z,69.78
2022-12-22T14:24:42.809Z,70.45
2022-12-22T14:27:18.949Z,70.98
2022-12-22T14:29:45.496Z,70.86
2022-12-22T14:32:31.821Z,70.78
2022-12-22T14:34:58.317Z,70.51
2022-12-22T14:37:32.173Z,70.39
2022-12-22T14:39:59.193Z,70.49
2022-12-22T14:42:25.660Z,71.13
2022-12-22T14:44:52.155Z,71.20
2022-12-22T14:47:25.590Z,71.62
2022-12-22T14:50:19.712Z,71.31
2022-12-22T14:52:58.268Z,71.56
2022-12-22T14:55:51.843Z,72.21
2022-12-22T14:58:21.954Z,72.55
2022-12-22T15:01:09.785Z,72.50
2022-12-22T15:03:38.474Z,72.75
2022-12-22T15:06:26.458Z,71.89
2022-12-22T15:09:13.140Z,72.83
2022-12-22T15:11:46.194Z,72.41
2022-12-22T15:14:17.125Z,73.03
2022-12-22T15:16:45.280Z,72.96
2022-12-22T15:19:17.157Z,72.83
2022-12-22T15:21:43.767Z,73.22
2022-12-22T15:24:12.529Z,72.97
2022-12-22T15:26:39.009Z,73.08
2022-12-22T15:29:05.476Z,73.47
2022-12-22T15:31:32.152Z,73.44
2022-12-22T15:34:02.005Z,73.47
2022-12-22T15:36:28.602Z,73.95
2022-12-22T15:38:55.097Z,74.18
2022-12-22T15:41:21.688Z,74.67
2022-12-22T15:44:03.345Z,74.36
2022-12-22T15:46:29.815Z,74.29
2022-12-22T15:48:56.258Z,73.28
2022-12-22T15:51:25.923Z,73.61
2022-12-22T15:53:53.906Z,73.64
2022-12-22T15:56:23.738Z,74.48
2022-12-22T15:58:50.214Z,74.42
2022-12-22T16:01:16.738Z,74.69
2022-12-22T16:03:43.438Z,74.65
2022-12-22T16:06:13.890Z,74.40
2022-12-22T16:08:43.054Z,74.29
2022-12-22T16:11:09.559Z,74.17
2022-12-22T16:13:37.808Z,73.94
2022-12-22T16:16:05.030Z,74.06
2022-12-22T16:18:32.375Z,74.17
2022-12-22T16:21:07.728Z,74.13
2022-12-22T16:23:36.628Z,74.28
2022-12-22T16:26:04.785Z,74.03
2022-12-22T16:28:32.857Z,74.17
2022-12-22T16:31:00.427Z,74.26
2022-12-22T16:33:27.121Z,74.01
2022-12-22T16:35:53.736Z,74.40
2022-12-22T16:38:20.376Z,74.46
2022-12-22T16:40:50.501Z,74.79
2022-12-22T16:43:51.212Z,74.02
2022-12-22T16:46:21.553Z,74.77
2022-12-22T16:48:54.296Z,74.70
2022-12-22T16:51:26.840Z,74.70
2022-12-22T16:53:54.103Z,75.43
2022-12-22T16:56:23.310Z,76.03
2022-12-22T16:58:49.939Z,76.30
2022-12-22T17:01:27.827Z,76.38
2022-12-22T17:03:54.928Z,76.52
2022-12-22T17:06:21.633Z,76.20
2022-12-22T17:08:48.699Z,75.94
2022-12-22T17:11:22.547Z,75.88
2022-12-22T17:13:52.726Z,75.76
2022-12-22T17:16:22.005Z,76.23
2022-12-22T17:18:49.138Z,76.23
2022-12-22T17:21:18.947Z,76.15
2022-12-22T17:23:51.552Z,76.52
2022-12-22T17:26:20.929Z,76.62
2022-12-22T17:28:48.533Z,76.74
2022-12-22T17:31:20.687Z,77.14
2022-12-22T17:33:48.204Z,77.10
2022-12-22T17:36:30.785Z,77.79
2022-12-22T17:38:57.959Z,78.32
2022-12-22T17:41:24.787Z,78.21
2022-12-22T17:43:51.231Z,78.31
2022-12-22T17:46:19.574Z,78.68
2022-12-22T17:48:46.748Z,79.46
2022-12-22T17:51:17.348Z,78.86
2022-12-22T17:53:45.075Z,79.58
2022-12-22T17:56:17.585Z,79.53
2022-12-22T17:58:44.645Z,79.85
2022-12-22T18:01:32.359Z,79.56
2022-12-22T18:03:59.326Z,80.43
2022-12-22T18:06:32.504Z,80.31
2022-12-22T18:08:59.388Z,80.70
2022-12-22T18:11:26.421Z,81.45
2022-12-22T18:13:53.825Z,81.22
2022-12-22T18:16:21.588Z,81.62
2022-12-22T18:18:48.496Z,81.31
2022-12-22T18:21:18.998Z,81.49
2022-12-22T18:23:50.008Z,81.45
2022-12-22T18:26:23.273Z,81.43
2022-12-22T18:28:49.897Z,81.43
2022-12-22T18:31:16.816Z,81.12
2022-12-22T18:33:43.692Z,81.05
2022-12-22T18:36:25.796Z,82.07
2022-12-22T18:38:52.257Z,82.10
2022-12-22T18:41:21.913Z,82.10
2022-12-22T18:43:48.611Z,82.16
2022-12-22T18:46:15.228Z,82.75
2022-12-22T18:48:41.739Z,82.91
2022-12-22T18:51:17.783Z,82.85
2022-12-22T18:53:44.520Z,82.63
2022-12-22T18:56:12.397Z,82.46
2022-12-22T18:58:39.592Z,82.20
2022-12-22T19:01:06.637Z,81.80
2022-12-22T19:03:33.245Z,82.52
2022-12-22T19:05:59.876Z,82.85
2022-12-22T19:08:27.772Z,81.94
2022-12-22T19:10:56.645Z,82.38
2022-12-22T19:13:37.010Z,82.30
2022-12-22T19:16:04.197Z,81.61
2022-12-22T19:18:30.824Z,81.46
2022-12-22T19:20:57.593Z,82.08
2022-12-22T19:23:25.652Z,81.84
2022-12-22T19:25:55.427Z,81.94
2022-12-22T19:28:28.243Z,81.24
2022-12-22T19:30:56.444Z,81.70
2022-12-22T19:33:35.050Z,81.67
2022-12-22T19:36:02.085Z,81.90
2022-12-22T19:38:30.314Z,82.31
2022-12-22T19:41:01.469Z,82.06
2022-12-22T19:43:29.370Z,81.98
2022-12-22T19:45:56.701Z,81.79
2022-12-22T19:48:26.105Z,81.43
2022-12-22T19:50:53.871Z,81.05
2022-12-22T19:53:21.071Z,81.69
2022-12-22T19:55:54.043Z,81.15
2022-12-22T19:58:30.688Z,81.05
2022-12-22T20:00:57.256Z,81.86
2022-12-22T20:03:25.887Z,81.37
2022-12-22T20:05:53.148Z,81.82
2022-12-22T20:08:19.607Z,81.39
2022-12-22T20:10:46.612Z,81.61
2022-12-22T20:13:19.217Z,82.24
2022-12-22T20:15:45.897Z,82.33
2022-12-22T20:18:17.481Z,82.55
2022-12-22T20:20:46.654Z,82.18
2022-12-22T20:23:21.952Z,82.65
2022-12-22T20:25:53.255Z,83.01
2022-12-22T20:28:33.033Z,81.68
2022-12-22T20:31:01.571Z,80.55
2022-12-22T20:33:28.814Z,81.20
2022-12-22T20:35:56.774Z,81.38
2022-12-22T20:38:34.629Z,80.74
2022-12-22T20:41:02.163Z,81.29
2022-12-22T20:43:30.509Z,81.67
2022-12-22T20:46:13.383Z,81.82
2022-12-22T20:48:47.634Z,81.55
2022-12-22T20:51:17.115Z,81.55
2022-12-22T20:53:44.728Z,81.35
2022-12-22T20:56:19.633Z,81.13
2022-12-22T20:58:46.278Z,81.22
2022-12-22T21:01:13.196Z,81.12
2022-12-22T21:03:39.665Z,80.85
2022-12-22T21:06:26.318Z,80.89
2022-12-22T21:08:54.420Z,80.91
2022-12-22T21:11:21.150Z,80.94
2022-12-22T21:13:47.648Z,81.13
2022-12-22T21:16:20.426Z,80.53
2022-12-22T21:18:46.944Z,80.91
2022-12-22T21:21:13.450Z,81.22
2022-12-22T21:23:39.841Z,80.94
2022-12-22T21:26:18.695Z,80.94
2022-12-22T21:28:46.172Z,80.99
2022-12-22T21:31:12.592Z,80.58
2022-12-22T21:33:39.053Z,80.65
2022-12-22T21:36:17.560Z,81.39
2022-12-22T21:38:44.222Z,82.02
2022-12-22T21:41:10.671Z,82.08
2022-12-22T21:43:37.092Z,82.58
2022-12-22T21:46:03.640Z,82.06
2022-12-22T21:48:30.180Z,81.47
2022-12-22T21:50:56.613Z,81.68
2022-12-22T21:53:23.034Z,81.35
2022-12-22T21:55:49.810Z,81.76
2022-12-22T21:58:16.505Z,81.87
2022-12-22T22:00:47.425Z,81.57
2022-12-22T22:03:15.353Z,81.65
2022-12-22T22:05:42.634Z,82.10
2022-12-22T22:08:11.380Z,82.07
2022-12-22T22:10:40.916Z,82.68
2022-12-22T22:13:07.933Z,83.78
2022-12-22T22:15:35.161Z,83.83
2022-12-22T22:18:06.857Z,84.68
2022-12-22T22:20:34.194Z,85.24
2022-12-22T22:23:00.741Z,85.67
2022-12-22T22:25:27.519Z,85.77
2022-12-22T22:27:54.038Z,86.31
2022-12-22T22:30:25.883Z,86.94
2022-12-22T22:32:52.956Z,86.92
2022-12-22T22:35:20.895Z,87.03
2022-12-22T22:37:50.632Z,87.36
2022-12-22T22:40:20.163Z,87.30
2022-12-22T22:42:46.873Z,87.56
2022-12-22T22:45:15.598Z,87.95
2022-12-22T22:47:42.166Z,88.18
2022-12-22T22:50:09.262Z,88.36
2022-12-22T22:52:36.675Z,88.77
2022-12-22T22:55:03.517Z,89.19
2022-12-22T22:57:29.967Z,89.26
2022-12-22T22:59:56.426Z,88.99
2022-12-22T23:02:23.190Z,89.23
2022-12-22T23:04:49.774Z,89.00
2022-12-22T23:07:16.349Z,88.98
2022-12-22T23:09:42.785Z,88.94
2022-12-22T23:12:09.251Z,88.67
2022-12-22T23:14:35.665Z,88.29
2022-12-22T23:17:02.088Z,88.27
2022-12-22T23:19:28.554Z,88.52
2022-12-22T23:21:55.012Z,88.54
2022-12-22T23:24:21.474Z,88.89
2022-12-22T23:26:48.158Z,88.93
2022-12-22T23:29:14.574Z,89.40
2022-12-22T23:31:41.152Z,89.05
2022-12-22T23:34:07.665Z,89.15
2022-12-22T23:36:34.126Z,89.27
2022-12-22T23:39:00.611Z,89.61
2022-12-22T23:41:27.312Z,89.17
2022-12-22T23:43:54.368Z,89.11
2022-12-22T23:46:21.405Z,89.59
2022-12-22T23:48:53.155Z,89.36
2022-12-22T23:51:22.260Z,89.55
2022-12-22T23:53:48.706Z,89.65
2022-12-22T23:56:15.329Z,89.80
2022-12-22T23:58:42.282Z,89.75
